Details From CYSF - Stony Rapids
To CYEK - Arviat
Flight Number -
Tags Generated
Created
Modified
Stats Distance 368 nm / 681 km
Max Altitude 0 ft / 0 m
Waypoints 2
Social Downloads 1
Likes 0
Share VATSIM

Download

Looking for another format? Having issues loading an existing format? Contact us
Advertisement - Login to hide

Notes

Generated

Route

CYSF CYEK

ID Type Via Altitude Latitude Longitude Leg Dist Tot Dist Heading (true) Name
O CYSF APT - 0 ft / 0 m 59.25236˚ -105.82838˚ - 0 nm - -
O CYEK APT - 0 ft / 0 m 61.09886˚ -94.07665˚ 367 nm 367 nm 67° / 78° -

Altitude Profile

Advertisement - Login to hide

Weather


0- 5 10 15 20 25 30 35+ Temperature / ° C

Clouds and Precipitation
Forecast for 2017-12-15 00:00 UTC. Updated 2 hours ago

Ground ~20,000 ft ~40,000 ft Winds

CYSF

Details ICAO CYSF (YSF)
Name Stony Rapids
Region Canada
Timezone America/Regina (UTC-6.0)
Stats Elevation 805 ft / 245 m (AMSL)
Location 59.250340° -105.841339°
Runways 1
Magnetic Variation 10.153° E

METAR

CYSF 142100Z AUTO 09004KT 9SM OVC005 M17/M18 A3008 RMK SLP215

Decode

TAF

TAF AMD CYSF 142119Z 1421/1506 09005KT P6SM -SN OVC015 TEMPO 1421/1424 3/4SM -SHSN BR OVC005 FM150000 09005KT P6SM SCT015 BKN090 TEMPO 1500/1506 5SM -SN SCT007 BKN015 RMK FCST BASED ON AUTO OBS. NXT FCST BY 150000Z

Decode

Departure Runways

ID Width Length Bearing (true) Bearing (mag) Surface Threshold Offset Overrun Length
06 98 ft / 30 m 5,055 ft / 1,541 m 253.01° 242.86° Asphalt 0 ft / 0 m 0 ft / 0 m
24 98 ft / 30 m 5,055 ft / 1,541 m 72.99° 62.84° Asphalt 0 ft / 0 m 0 ft / 0 m

CYEK

Details ICAO CYEK (YEK)
Name ARVIAT
Region Canada
Timezone America/Rankin_Inlet (UTC-6.0)
Stats Elevation 32 ft / 10 m (AMSL)
Location 61.094167° -94.070834°
Runways 1
Magnetic Variation 3.188° W

METAR

CYEK 142100Z 31014KT 4SM -SN OVC031 M21/M24 A3002 RMK SC8 SLP169

Decode

TAF

TAF AMD TAF AMD CYEK 142107Z 1421/1506 31015KT P6SM BKN030 TEMPO 1421/1424 3SM -SN BKN020 OVC030 FM150000 33015KT P6SM FEW020 SCT060 TEMPO 1500/1506 SCT020 BKN060 RMK NXT FCST BY 150000Z

Decode

Destination Runways

ID Width Length Bearing (true) Bearing (mag) Surface Threshold Offset Overrun Length
15T 100 ft / 30 m 3,991 ft / 1,216 m 149.03° 152.22° Gravel 0 ft / 0 m 0 ft / 0 m
33T 100 ft / 30 m 3,991 ft / 1,216 m 329.05° 332.24° Gravel 0 ft / 0 m 0 ft / 0 m